Time;durP1;ratioP1;P1;durP2;ratioP2;P2;SDS_P1;SDS_P2;PMS_P1;PMS_P2;Temp;Humidity;BMP_temperature;BMP_pressure;BME280_temperature;BME280_humidity;BME280_pressure;Samples;Min_cycle;Max_cycle;Signal;HPM_P1;HPM_P2
2022/09/13 00:01:53;;;;;;;1.85;0.38;;;26.20;50.20;;;;;;5043585;28;20049;-46
2022/09/13 00:04:20;;;;;;;0.93;0.30;;;26.20;50.30;;;;;;5043732;28;20432;-46
2022/09/13 00:06:47;;;;;;;5.10;0.52;;;26.20;50.40;;;;;;5048933;28;20079;-47
2022/09/13 00:09:15;;;;;;;0.88;0.38;;;26.20;50.50;;;;;;5053614;28;20492;-46
2022/09/13 00:11:42;;;;;;;3.15;0.60;;;26.20;50.60;;;;;;5035465;28;20508;-45
2022/09/13 00:14:09;;;;;;;1.30;0.50;;;26.20;50.60;;;;;;5054248;28;20036;-48
2022/09/13 00:16:37;;;;;;;1.38;0.95;;;26.20;50.60;;;;;;5048953;28;20498;-44
2022/09/13 00:19:04;;;;;;;2.03;1.05;;;26.20;50.70;;;;;;5051897;28;20382;-47
2022/09/13 00:21:31;;;;;;;3.53;1.55;;;26.20;50.80;;;;;;5050888;28;20111;-47
2022/09/13 00:23:58;;;;;;;2.95;0.52;;;26.10;50.90;;;;;;5051690;28;20036;-45
2022/09/13 00:26:28;;;;;;;3.97;0.50;;;26.10;50.90;;;;;;5047994;28;20049;-48
2022/09/13 00:28:57;;;;;;;4.30;1.38;;;26.10;51.00;;;;;;5059742;28;20044;-46
2022/09/13 00:31:26;;;;;;;1.65;0.20;;;26.10;51.10;;;;;;5048989;28;20045;-48
2022/09/13 00:33:53;;;;;;;4.03;0.68;;;26.00;51.30;;;;;;5048535;28;20137;-45
2022/09/13 00:36:20;;;;;;;0.90;0.20;;;26.00;51.00;;;;;;5048063;28;20883;-45
2022/09/13 00:38:47;;;;;;;1.80;0.70;;;26.00;51.10;;;;;;5047342;28;20134;-46
2022/09/13 00:41:16;;;;;;;1.35;0.50;;;26.00;51.20;;;;;;5053300;28;20536;-49
2022/09/13 00:43:48;;;;;;;8.77;0.43;;;26.00;51.30;;;;;;5048151;28;20114;-44
2022/09/13 00:46:25;;;;;;;3.33;1.33;;;26.00;51.30;;;;;;5048365;28;20091;-46
2022/09/13 00:48:57;;;;;;;4.70;1.05;;;26.00;51.60;;;;;;5052048;28;20037;-48
2022/09/13 00:51:25;;;;;;;7.63;2.42;;;25.90;50.90;;;;;;5048162;28;21025;-45
2022/09/13 00:53:54;;;;;;;6.47;2.28;;;25.90;50.90;;;;;;5031996;28;20044;-47
2022/09/13 00:56:27;;;;;;;2.20;1.58;;;25.90;50.80;;;;;;5057530;28;20528;-52
2022/09/13 00:58:59;;;;;;;3.60;0.82;;;25.90;50.70;;;;;;5049780;28;20448;-46
2022/09/13 01:01:31;;;;;;;1.40;0.70;;;25.80;50.50;;;;;;5050258;28;20041;-47
2022/09/13 01:04:01;;;;;;;2.97;0.40;;;25.80;50.50;;;;;;5053017;28;20048;-46
2022/09/13 01:06:32;;;;;;;1.60;0.43;;;25.80;50.70;;;;;;5048452;28;20510;-50
2022/09/13 01:09:02;;;;;;;1.58;0.45;;;25.80;50.80;;;;;;5048238;28;20067;-47
2022/09/13 01:11:38;;;;;;;2.50;1.27;;;25.80;51.00;;;;;;5049011;28;20448;-45
2022/09/13 01:14:08;;;;;;;0.50;0.20;;;25.80;51.20;;;;;;5045558;28;20074;-46
2022/09/13 01:16:36;;;;;;;1.52;0.73;;;25.70;51.10;;;;;;5048006;28;20045;-45
2022/09/13 01:19:03;;;;;;;1.08;0.55;;;25.70;51.20;;;;;;5049338;28;20072;-45
2022/09/13 01:21:59;;;;;;;2.40;0.60;;;25.70;51.30;;;;;;5047904;28;20613;-46
2022/09/13 01:24:55;;;;;;;4.15;0.50;;;25.70;51.30;;;;;;5047925;28;20174;-44
2022/09/13 01:27:40;;;;;;;5.05;0.50;;;25.70;52.10;;;;;;5047832;28;20124;-44
2022/09/13 01:30:20;;;;;;;4.63;0.25;;;25.70;51.70;;;;;;5047856;28;20434;-46
2022/09/13 01:33:01;;;;;;;3.85;0.40;;;25.70;51.90;;;;;;5025095;28;20041;-44
2022/09/13 01:35:39;;;;;;;4.20;0.50;;;25.70;52.00;;;;;;5049130;28;20108;-49
2022/09/13 01:38:21;;;;;;;1.65;0.38;;;25.70;52.20;;;;;;5051665;28;20437;-44
2022/09/13 01:40:57;;;;;;;2.42;0.30;;;25.60;52.20;;;;;;5053583;28;20041;-44
2022/09/13 01:43:40;;;;;;;2.15;1.40;;;25.60;52.30;;;;;;5053303;28;20124;-44
2022/09/13 01:46:12;;;;;;;1.95;0.68;;;25.60;52.40;;;;;;5051536;28;20102;-44
2022/09/13 01:48:55;;;;;;;4.50;1.25;;;25.60;52.50;;;;;;5051344;28;20119;-44
2022/09/13 01:51:28;;;;;;;3.92;0.30;;;25.60;52.50;;;;;;5051693;28;20091;-49
2022/09/13 01:54:09;;;;;;;1.52;0.70;;;25.60;52.60;;;;;;5054010;28;20041;-45
2022/09/13 01:56:40;;;;;;;2.88;1.15;;;25.60;52.60;;;;;;5050549;28;20083;-44
2022/09/13 01:59:14;;;;;;;3.92;0.63;;;25.50;52.60;;;;;;5051353;28;20103;-46
2022/09/13 02:01:49;;;;;;;0.85;0.45;;;25.50;52.60;;;;;;5044924;28;20041;-44
2022/09/13 02:04:19;;;;;;;0.80;0.30;;;25.50;52.70;;;;;;5058937;28;20090;-45
2022/09/13 02:06:51;;;;;;;4.95;0.45;;;25.50;52.80;;;;;;5051056;28;20044;-45
2022/09/13 02:09:22;;;;;;;1.85;0.90;;;25.50;52.80;;;;;;5050814;28;20120;-43
2022/09/13 02:11:54;;;;;;;2.17;0.55;;;25.50;52.80;;;;;;5054497;28;20041;-47
2022/09/13 02:14:25;;;;;;;4.18;0.52;;;25.50;52.90;;;;;;5050933;28;20045;-43
2022/09/13 02:16:57;;;;;;;2.25;0.35;;;25.50;52.80;;;;;;5050526;28;20068;-44
2022/09/13 02:19:32;;;;;;;4.03;1.20;;;25.50;52.80;;;;;;5050746;28;20045;-44
2022/09/13 02:22:01;;;;;;;2.47;0.40;;;25.40;52.80;;;;;;5032501;28;20496;-45
2022/09/13 02:24:32;;;;;;;1.17;0.40;;;25.40;52.80;;;;;;5054814;28;20036;-44
2022/09/13 02:27:06;;;;;;;4.30;0.82;;;25.40;52.90;;;;;;5052018;28;20117;-43
2022/09/13 02:29:36;;;;;;;3.30;0.60;;;25.40;52.90;;;;;;5056621;28;20044;-44
2022/09/13 02:32:10;;;;;;;1.45;0.40;;;25.40;53.10;;;;;;5044328;28;20053;-43
2022/09/13 02:34:41;;;;;;;0.73;0.50;;;25.40;53.10;;;;;;5055513;28;20500;-44
2022/09/13 02:37:11;;;;;;;2.35;0.70;;;25.30;53.00;;;;;;5050800;28;20080;-46
2022/09/13 02:39:45;;;;;;;5.57;0.70;;;25.30;53.00;;;;;;5050315;28;20044;-44
2022/09/13 02:42:17;;;;;;;4.00;1.15;;;25.30;52.90;;;;;;5055020;28;20552;-44
2022/09/13 02:44:47;;;;;;;2.60;1.13;;;25.30;52.70;;;;;;5052841;28;20102;-44
2022/09/13 02:47:34;;;;;;;8.57;0.60;;;25.30;52.70;;;;;;5049373;28;20041;-45
2022/09/13 02:50:11;;;;;;;2.83;1.20;;;25.30;52.60;;;;;;5053700;28;20524;-44
2022/09/13 02:52:48;;;;;;;3.13;0.68;;;25.30;52.80;;;;;;5055070;28;20071;-46
2022/09/13 02:55:20;;;;;;;3.85;0.70;;;25.30;52.90;;;;;;5045308;28;20064;-47
2022/09/13 02:57:58;;;;;;;4.22;0.35;;;25.30;52.90;;;;;;5050154;28;20072;-46
2022/09/13 03:00:25;;;;;;;4.95;0.50;;;25.30;52.50;;;;;;5050116;28;20571;-50
2022/09/13 03:02:56;;;;;;;2.58;0.55;;;25.30;52.40;;;;;;5050129;28;20037;-47
2022/09/13 03:05:23;;;;;;;2.75;0.85;;;25.20;52.10;;;;;;5050263;28;20049;-46
2022/09/13 03:07:51;;;;;;;3.13;0.75;;;25.20;51.80;;;;;;5051097;28;20049;-44
2022/09/13 03:10:19;;;;;;;3.05;0.50;;;25.20;51.70;;;;;;5051867;28;20041;-44
2022/09/13 03:13:12;;;;;;;0.50;0.35;;;25.20;51.60;;;;;;5050851;28;20508;-44
2022/09/13 03:16:02;;;;;;;1.52;0.40;;;25.20;51.70;;;;;;5050080;28;20045;-46
2022/09/13 03:18:44;;;;;;;1.38;0.63;;;25.20;51.60;;;;;;5050470;28;20037;-45
2022/09/13 03:21:27;;;;;;;2.90;0.63;;;25.20;52.20;;;;;;5056347;28;20045;-51
2022/09/13 03:24:05;;;;;;;1.98;0.65;;;25.20;52.70;;;;;;5055568;28;20072;-50
2022/09/13 03:26:56;;;;;;;3.22;1.38;;;25.10;53.00;;;;;;5056041;28;20413;-47
2022/09/13 03:29:31;;;;;;;1.50;0.52;;;25.20;53.30;;;;;;5052238;28;20467;-46
2022/09/13 03:32:16;;;;;;;2.07;0.43;;;25.10;53.50;;;;;;5051108;28;20036;-47
2022/09/13 03:34:51;;;;;;;1.17;0.43;;;25.10;53.60;;;;;;5048535;28;20071;-43
2022/09/13 03:37:27;;;;;;;5.03;0.50;;;25.10;53.80;;;;;;5049438;28;20445;-45
2022/09/13 03:39:59;;;;;;;6.03;0.75;;;25.10;53.90;;;;;;5055063;28;20125;-47
2022/09/13 03:42:32;;;;;;;2.30;0.60;;;25.10;54.00;;;;;;5054187;28;20463;-43
2022/09/13 03:45:02;;;;;;;1.40;0.35;;;25.10;54.20;;;;;;5051353;28;20115;-44
2022/09/13 03:47:33;;;;;;;0.90;0.40;;;25.00;54.20;;;;;;5049321;28;20517;-50
2022/09/13 03:50:02;;;;;;;2.15;0.73;;;25.10;54.20;;;;;;5053727;28;20162;-47
2022/09/13 03:52:30;;;;;;;1.08;0.52;;;25.00;54.10;;;;;;5048905;28;20071;-45
2022/09/13 03:54:58;;;;;;;4.22;0.32;;;25.10;54.20;;;;;;5049137;28;20144;-44
2022/09/13 03:57:26;;;;;;;2.17;0.38;;;25.00;54.20;;;;;;5051409;28;20133;-45
2022/09/13 03:59:54;;;;;;;2.97;0.45;;;25.00;54.30;;;;;;5053395;28;20040;-45
2022/09/13 04:02:23;;;;;;;1.08;0.82;;;25.00;54.30;;;;;;5049739;28;20056;-46
2022/09/13 04:04:50;;;;;;;3.15;0.88;;;25.00;54.30;;;;;;5054270;28;20039;-45
2022/09/13 04:07:21;;;;;;;3.40;0.55;;;25.00;54.30;;;;;;5049276;28;20108;-44
2022/09/13 04:09:48;;;;;;;6.28;1.15;;;25.00;54.40;;;;;;5053820;28;20405;-46
2022/09/13 04:12:17;;;;;;;1.05;0.65;;;25.00;54.40;;;;;;5049036;28;20033;-43
2022/09/13 04:14:45;;;;;;;2.05;0.30;;;25.00;54.50;;;;;;5048845;28;20049;-44
2022/09/13 04:17:12;;;;;;;2.63;0.50;;;25.00;54.60;;;;;;5048982;28;20036;-44
2022/09/13 04:19:40;;;;;;;4.03;0.60;;;25.00;54.70;;;;;;5051578;28;20707;-44
2022/09/13 04:22:07;;;;;;;9.27;0.57;;;25.00;54.70;;;;;;5051304;28;20037;-43
2022/09/13 04:24:37;;;;;;;4.88;0.82;;;25.00;54.60;;;;;;5036983;28;20053;-42
2022/09/13 04:27:05;;;;;;;3.53;0.43;;;25.00;54.60;;;;;;5048458;28;20102;-44
2022/09/13 04:29:32;;;;;;;0.52;0.30;;;25.00;54.60;;;;;;5052286;28;20044;-43
2022/09/13 04:32:00;;;;;;;0.55;0.40;;;24.90;54.50;;;;;;5048597;28;20040;-43
2022/09/13 04:34:27;;;;;;;2.42;0.30;;;25.00;54.50;;;;;;5049350;28;20565;-47
2022/09/13 04:36:54;;;;;;;2.22;0.35;;;24.90;55.00;;;;;;5049070;28;20094;-43
2022/09/13 04:39:22;;;;;;;1.40;0.40;;;24.90;54.40;;;;;;5048901;28;20152;-45
2022/09/13 04:41:53;;;;;;;0.73;0.40;;;24.90;54.40;;;;;;5051507;28;20063;-44
2022/09/13 04:44:23;;;;;;;2.53;0.35;;;24.90;54.40;;;;;;5048684;28;20044;-45
2022/09/13 04:46:50;;;;;;;3.13;0.60;;;24.90;54.50;;;;;;5041709;28;20041;-43
2022/09/13 04:49:18;;;;;;;1.58;0.32;;;24.90;54.60;;;;;;5048175;28;20049;-51
2022/09/13 04:51:46;;;;;;;2.65;0.38;;;24.90;54.50;;;;;;5054156;28;20143;-50
2022/09/13 04:54:14;;;;;;;1.77;0.38;;;24.90;54.40;;;;;;5048664;28;20045;-44
2022/09/13 04:56:41;;;;;;;6.65;0.98;;;24.90;55.00;;;;;;5048259;28;20514;-47
2022/09/13 04:59:11;;;;;;;8.00;0.82;;;24.90;54.40;;;;;;5051124;28;20141;-48
2022/09/13 05:01:38;;;;;;;3.63;0.68;;;24.90;54.40;;;;;;5057990;28;20288;-47
2022/09/13 05:04:06;;;;;;;2.40;0.63;;;24.80;54.30;;;;;;5048989;28;20048;-44
2022/09/13 05:06:34;;;;;;;2.67;0.50;;;24.90;54.40;;;;;;5019559;28;20515;-46
2022/09/13 05:09:02;;;;;;;1.92;0.85;;;24.80;54.40;;;;;;5049786;28;20095;-43
2022/09/13 05:11:30;;;;;;;1.05;0.52;;;24.70;54.30;;;;;;5050655;28;20037;-43
2022/09/13 05:13:58;;;;;;;3.17;0.40;;;24.70;54.20;;;;;;5052149;28;20064;-44
2022/09/13 05:16:29;;;;;;;3.53;0.20;;;24.60;53.90;;;;;;5055193;28;20037;-44
2022/09/13 05:18:57;;;;;;;2.53;0.20;;;24.70;53.70;;;;;;5052870;28;20049;-45
2022/09/13 05:21:24;;;;;;;5.28;0.90;;;24.60;53.70;;;;;;5057261;28;20048;-51
2022/09/13 05:23:52;;;;;;;8.57;3.05;;;24.60;53.80;;;;;;5055261;28;20041;-48
2022/09/13 05:26:20;;;;;;;5.55;3.85;;;24.60;54.00;;;;;;5051637;28;20102;-48
2022/09/13 05:28:48;;;;;;;9.13;1.50;;;24.60;54.10;;;;;;5051796;28;20067;-45
2022/09/13 05:31:17;;;;;;;5.97;1.15;;;24.50;54.20;;;;;;5058586;28;20044;-44
2022/09/13 05:33:47;;;;;;;3.67;2.13;;;24.50;54.30;;;;;;5056040;28;20081;-47
2022/09/13 05:36:15;;;;;;;1.75;0.65;;;24.50;54.40;;;;;;5036259;28;20060;-46
2022/09/13 05:38:42;;;;;;;1.20;0.57;;;24.50;54.50;;;;;;5056249;28;20052;-44
2022/09/13 05:41:09;;;;;;;1.70;0.52;;;24.40;54.50;;;;;;5066575;28;20064;-47
2022/09/13 05:43:37;;;;;;;3.05;0.22;;;24.40;54.50;;;;;;5053046;28;20053;-46
2022/09/13 05:46:06;;;;;;;6.00;0.60;;;24.40;54.50;;;;;;5056898;28;20540;-45
2022/09/13 05:48:35;;;;;;;1.10;0.50;;;24.40;54.70;;;;;;5052238;28;20037;-45
2022/09/13 05:51:09;;;;;;;3.08;0.45;;;24.40;54.70;;;;;;5058851;28;20370;-46
2022/09/13 05:53:36;;;;;;;2.80;0.52;;;24.30;54.70;;;;;;5037079;28;20142;-49
2022/09/13 05:56:03;;;;;;;2.00;1.58;;;24.30;54.80;;;;;;5051538;28;20045;-48
2022/09/13 05:58:30;;;;;;;3.88;0.75;;;24.30;54.70;;;;;;5033201;28;20037;-48
2022/09/13 06:00:58;;;;;;;2.58;0.52;;;24.30;54.80;;;;;;5058841;28;20033;-46
2022/09/13 06:03:25;;;;;;;0.68;0.20;;;24.30;54.80;;;;;;5056217;28;20101;-47
2022/09/13 06:05:56;;;;;;;0.50;0.28;;;24.30;54.80;;;;;;5040761;28;20120;-47
2022/09/13 06:08:25;;;;;;;1.10;0.30;;;24.20;54.70;;;;;;5053483;28;20049;-45
2022/09/13 06:10:57;;;;;;;0.73;0.20;;;24.20;54.80;;;;;;5038789;28;20290;-44
2022/09/13 06:13:25;;;;;;;2.13;0.30;;;24.20;54.80;;;;;;5053222;28;20115;-44
2022/09/13 06:15:52;;;;;;;0.65;0.10;;;24.20;54.90;;;;;;5054540;28;20041;-44
2022/09/13 06:18:20;;;;;;;0.43;0.43;;;24.20;55.00;;;;;;5053006;28;20393;-47
2022/09/13 06:20:47;;;;;;;5.40;0.20;;;24.10;55.00;;;;;;5052670;28;20043;-45
2022/09/13 06:23:15;;;;;;;0.80;0.22;;;24.20;55.00;;;;;;5055652;28;20171;-46
2022/09/13 06:25:44;;;;;;;1.70;0.63;;;24.20;55.10;;;;;;5058055;28;20135;-44
2022/09/13 06:28:11;;;;;;;3.58;0.45;;;24.20;55.10;;;;;;5054988;28;20119;-44
2022/09/13 06:30:38;;;;;;;4.38;0.43;;;24.20;55.00;;;;;;5060834;28;20493;-44
2022/09/13 06:33:05;;;;;;;2.25;0.30;;;24.10;54.90;;;;;;5051795;28;20068;-45
2022/09/13 06:35:32;;;;;;;3.15;0.32;;;24.20;55.00;;;;;;5054576;28;20036;-48
2022/09/13 06:37:59;;;;;;;3.40;0.30;;;24.20;54.90;;;;;;5053880;28;20495;-48
2022/09/13 06:40:26;;;;;;;3.63;0.43;;;24.20;54.70;;;;;;5055488;28;20056;-43
2022/09/13 06:42:55;;;;;;;0.60;0.22;;;24.20;54.70;;;;;;5050232;28;20041;-44
2022/09/13 06:45:22;;;;;;;7.03;0.70;;;24.20;54.60;;;;;;5030485;28;20066;-43
2022/09/13 06:47:49;;;;;;;5.43;0.30;;;24.30;54.50;;;;;;5052257;28;20405;-48
2022/09/13 06:50:17;;;;;;;5.68;0.32;;;24.30;54.40;;;;;;5047714;28;20410;-50
2022/09/13 06:52:44;;;;;;;2.45;0.70;;;24.30;54.30;;;;;;5049791;28;20087;-47
2022/09/13 06:55:11;;;;;;;5.25;0.38;;;24.30;54.20;;;;;;5031761;28;20116;-46
2022/09/13 06:57:38;;;;;;;0.95;0.45;;;24.40;54.10;;;;;;5049593;28;20053;-46
2022/09/13 07:00:08;;;;;;;2.65;1.05;;;24.40;54.20;;;;;;5051134;28;20044;-47
2022/09/13 07:02:35;;;;;;;8.68;0.47;;;24.40;53.80;;;;;;5043876;28;20041;-48
2022/09/13 07:05:02;;;;;;;1.67;0.80;;;24.40;53.80;;;;;;5053536;28;20037;-43
2022/09/13 07:07:30;;;;;;;1.73;0.50;;;24.40;53.70;;;;;;5049879;28;20128;-55
2022/09/13 07:09:57;;;;;;;7.35;0.50;;;24.50;53.70;;;;;;5051189;28;20064;-55
2022/09/13 07:12:24;;;;;;;7.00;0.85;;;24.50;53.60;;;;;;5046769;28;20128;-51
2022/09/13 07:14:51;;;;;;;2.58;1.13;;;24.50;53.40;;;;;;5049507;28;20047;-47
2022/09/13 07:17:19;;;;;;;5.35;0.45;;;24.60;53.90;;;;;;5037632;28;20045;-49
2022/09/13 07:19:46;;;;;;;3.50;0.43;;;24.60;53.20;;;;;;5048954;28;20409;-46
2022/09/13 07:22:14;;;;;;;5.30;0.55;;;24.60;53.60;;;;;;5050006;28;20579;-45
2022/09/13 07:24:41;;;;;;;4.25;0.80;;;24.70;52.90;;;;;;5050448;28;20045;-46
2022/09/13 07:27:08;;;;;;;6.53;0.52;;;24.70;52.60;;;;;;5057719;28;20057;-53
2022/09/13 07:29:35;;;;;;;6.75;0.77;;;24.80;52.50;;;;;;5035583;28;20053;-51
2022/09/13 07:32:02;;;;;;;3.13;0.32;;;24.90;52.50;;;;;;5053297;28;20455;-52
2022/09/13 07:34:31;;;;;;;1.63;0.47;;;24.90;52.30;;;;;;5049194;28;20630;-45
2022/09/13 07:36:58;;;;;;;2.65;0.85;;;24.90;52.20;;;;;;5050789;28;20143;-45
2022/09/13 07:39:25;;;;;;;0.43;0.40;;;24.90;52.00;;;;;;5052358;28;20472;-54
2022/09/13 07:41:52;;;;;;;2.90;0.40;;;25.00;51.90;;;;;;5057900;28;20120;-53
2022/09/13 07:44:19;;;;;;;3.50;0.88;;;25.00;51.80;;;;;;5051028;28;20413;-49
2022/09/13 07:46:47;;;;;;;3.03;0.43;;;25.10;51.70;;;;;;5052110;28;20037;-55
2022/09/13 07:49:16;;;;;;;6.57;0.95;;;25.10;51.70;;;;;;5051411;28;20059;-52
2022/09/13 07:51:45;;;;;;;3.25;0.30;;;25.10;51.60;;;;;;5048306;28;20048;-51
2022/09/13 07:54:14;;;;;;;1.85;0.30;;;25.20;51.60;;;;;;5048987;28;20065;-52
2022/09/13 07:56:41;;;;;;;8.32;0.98;;;25.20;51.50;;;;;;5055915;28;20056;-49
2022/09/13 07:59:12;;;;;;;3.40;1.10;;;25.30;51.50;;;;;;5053337;28;20711;-48
2022/09/13 08:01:41;;;;;;;1.33;0.20;;;25.30;51.30;;;;;;5049286;28;20044;-51
2022/09/13 08:04:10;;;;;;;1.67;0.52;;;25.30;51.20;;;;;;5049616;28;20063;-55
2022/09/13 08:06:38;;;;;;;4.72;0.20;;;25.30;51.20;;;;;;5049424;28;20486;-57
2022/09/13 08:09:08;;;;;;;1.77;0.32;;;25.40;51.20;;;;;;5048935;28;20098;-54
2022/09/13 08:11:37;;;;;;;3.22;0.30;;;25.50;51.10;;;;;;5037506;28;20374;-54
2022/09/13 08:14:04;;;;;;;2.85;0.17;;;25.50;51.00;;;;;;5050465;28;20049;-51
2022/09/13 08:16:32;;;;;;;0.98;0.20;;;25.50;51.00;;;;;;5047848;28;20041;-46
2022/09/13 08:19:01;;;;;;;7.80;0.90;;;25.60;50.90;;;;;;5050526;28;20048;-50
2022/09/13 08:21:33;;;;;;;2.70;0.30;;;25.60;50.80;;;;;;5049914;28;20048;-51
2022/09/13 08:24:00;;;;;;;10.40;0.20;;;25.70;50.70;;;;;;5057877;28;20120;-48
2022/09/13 08:26:29;;;;;;;3.60;1.05;;;25.70;50.60;;;;;;5047434;28;20136;-50
2022/09/13 08:28:57;;;;;;;5.40;0.30;;;25.70;50.50;;;;;;5050949;28;20099;-45
2022/09/13 08:31:24;;;;;;;6.30;0.38;;;25.70;50.40;;;;;;5051037;28;20517;-53
2022/09/13 08:33:52;;;;;;;7.60;0.20;;;25.80;50.30;;;;;;5043027;28;20120;-51
2022/09/13 08:36:22;;;;;;;4.38;0.30;;;25.80;50.10;;;;;;5048523;28;20057;-47
2022/09/13 08:38:51;;;;;;;5.47;0.43;;;25.90;49.90;;;;;;5053776;28;20052;-54
2022/09/13 08:41:51;;;;;;;0.47;0.45;;;25.90;49.60;;;;;;5050206;28;20037;-51
2022/09/13 08:44:25;;;;;;;6.45;0.52;;;26.00;49.40;;;;;;5029467;28;20053;-54
2022/09/13 08:46:57;;;;;;;2.97;0.38;;;26.00;49.30;;;;;;5050390;28;20640;-57
2022/09/13 08:49:28;;;;;;;2.40;0.30;;;26.00;49.20;;;;;;5037833;28;20041;-59
2022/09/13 08:52:02;;;;;;;3.05;0.10;;;26.10;49.10;;;;;;5059049;28;20111;-58
2022/09/13 08:54:29;;;;;;;3.83;0.28;;;26.10;49.00;;;;;;5057914;28;20049;-54
2022/09/13 08:57:09;;;;;;;0.60;0.47;;;26.20;48.90;;;;;;5056474;28;20478;-56
2022/09/13 08:59:50;;;;;;;5.25;0.32;;;26.30;48.90;;;;;;5051951;28;20227;-56
2022/09/13 09:02:48;;;;;;;1.85;0.13;;;26.30;48.80;;;;;;5056194;28;20417;-46
2022/09/13 09:05:18;;;;;;;5.55;0.20;;;26.30;48.90;;;;;;5046890;28;20732;-57
2022/09/13 09:07:50;;;;;;;2.70;0.45;;;26.30;48.90;;;;;;5047671;28;20060;-52
2022/09/13 09:10:20;;;;;;;2.65;0.10;;;26.30;48.80;;;;;;5049055;28;20044;-55
2022/09/13 09:12:53;;;;;;;2.40;0.10;;;26.30;48.70;;;;;;5051091;28;20041;-58
2022/09/13 09:15:22;;;;;;;1.75;1.08;;;26.40;48.70;;;;;;5051177;28;20078;-61
2022/09/13 09:17:55;;;;;;;3.90;0.10;;;26.40;48.70;;;;;;5050946;28;20072;-57
2022/09/13 09:20:31;;;;;;;4.40;0.70;;;26.40;48.60;;;;;;5049670;28;20049;-65
2022/09/13 09:23:02;;;;;;;0.90;0.10;;;26.40;48.80;;;;;;5055415;28;20132;-64
2022/09/13 09:25:31;;;;;;;3.47;0.38;;;26.40;49.10;;;;;;5052182;28;20044;-63
2022/09/13 09:27:59;;;;;;;5.03;0.20;;;26.50;49.50;;;;;;5050832;28;20039;-60
2022/09/13 09:30:36;;;;;;;4.45;0.30;;;26.50;50.00;;;;;;5048876;28;20676;-56
2022/09/13 09:33:23;;;;;;;2.83;0.13;;;26.50;50.30;;;;;;5049505;28;20127;-57
2022/09/13 09:36:00;;;;;;;1.10;0.32;;;26.50;50.30;;;;;;5052747;28;20448;-56
2022/09/13 09:38:35;;;;;;;6.38;0.50;;;26.50;51.00;;;;;;5050150;28;20580;-58
2022/09/13 09:41:06;;;;;;;5.25;0.45;;;26.50;50.80;;;;;;5049529;28;20044;-57
2022/09/13 09:43:41;;;;;;;6.43;0.73;;;26.60;50.90;;;;;;5048268;28;20072;-61
2022/09/13 09:46:12;;;;;;;1.33;0.30;;;26.60;51.30;;;;;;5052879;28;20037;-59
2022/09/13 09:48:44;;;;;;;5.50;0.10;;;26.60;51.10;;;;;;5050175;28;20553;-61
2022/09/13 09:51:14;;;;;;;2.67;1.23;;;26.60;51.20;;;;;;5048407;28;20037;-61
2022/09/13 09:53:46;;;;;;;1.20;0.20;;;26.60;51.50;;;;;;5051378;28;20037;-60
2022/09/13 09:56:21;;;;;;;3.10;0.45;;;26.70;52.10;;;;;;5047185;28;20045;-57
2022/09/13 09:58:50;;;;;;;1.35;0.30;;;26.70;51.50;;;;;;5050398;28;20048;-61
2022/09/13 10:01:24;;;;;;;2.20;0.35;;;26.70;51.60;;;;;;5051483;28;20498;-56
2022/09/13 10:04:08;;;;;;;3.13;1.17;;;26.70;51.60;;;;;;5047318;28;20040;-57
2022/09/13 10:06:36;;;;;;;0.43;0.10;;;26.80;51.40;;;;;;5046833;28;20052;-57
2022/09/13 10:09:06;;;;;;;3.30;0.30;;;26.70;51.20;;;;;;5050444;28;20068;-54
2022/09/13 10:11:42;;;;;;;1.95;0.30;;;26.80;51.20;;;;;;5047564;28;20045;-50
2022/09/13 10:14:30;;;;;;;0.40;0.10;;;26.80;51.00;;;;;;5047205;28;20124;-51
2022/09/13 10:17:16;;;;;;;1.85;0.20;;;26.80;50.60;;;;;;5050886;28;20588;-52
2022/09/13 10:19:54;;;;;;;2.63;0.10;;;26.90;50.60;;;;;;5051210;28;20047;-63
2022/09/13 10:22:22;;;;;;;3.53;0.28;;;26.90;50.70;;;;;;5050015;28;20135;-59
2022/09/13 10:24:50;;;;;;;0.90;0.30;;;26.90;50.40;;;;;;5055332;28;20432;-58
2022/09/13 10:27:22;;;;;;;1.00;0.25;;;26.90;50.10;;;;;;5055850;28;20060;-58
2022/09/13 10:29:58;;;;;;;1.38;0.45;;;27.00;49.70;;;;;;5053052;28;20045;-62
2022/09/13 10:32:25;;;;;;;;;;;27.00;49.30;;;;;;5052763;28;20045;-61
2022/09/13 10:34:54;;;;;;;0.40;0.10;;;27.00;49.40;;;;;;5052840;28;19967;-64
2022/09/13 10:37:25;;;;;;;0.60;0.20;;;26.90;49.10;;;;;;5049921;28;20051;-64
2022/09/13 10:39:58;;;;;;;0.73;0.22;;;27.00;48.90;;;;;;5049205;28;20037;-55
2022/09/13 10:42:27;;;;;;;0.60;0.17;;;27.00;48.70;;;;;;5018758;28;20126;-66
2022/09/13 10:44:58;;;;;;;0.73;0.30;;;27.00;48.60;;;;;;5051902;28;20043;-62
2022/09/13 10:47:30;;;;;;;2.50;0.20;;;27.10;48.50;;;;;;5052131;28;20051;-64
2022/09/13 10:49:59;;;;;;;2.78;0.20;;;27.10;48.40;;;;;;5054043;28;20037;-74
2022/09/13 10:52:29;;;;;;;3.50;0.10;;;27.10;48.40;;;;;;5057447;28;20037;-71
2022/09/13 10:55:29;;;;;;;7.15;1.00;;;27.10;49.00;;;;;;5057759;28;20147;-70
2022/09/13 10:58:13;;;;;;;2.83;0.17;;;27.20;48.20;;;;;;5049742;28;20056;-59
2022/09/13 11:01:01;;;;;;;0.75;0.73;;;27.30;48.20;;;;;;5045897;28;20391;-57
2022/09/13 11:03:44;;;;;;;2.05;0.10;;;27.30;48.10;;;;;;5039188;28;20048;-60
2022/09/13 11:06:20;;;;;;;3.60;0.35;;;27.30;47.90;;;;;;5049786;28;20045;-55
2022/09/13 11:08:57;;;;;;;3.15;0.20;;;27.40;47.80;;;;;;5050644;28;20045;-61
2022/09/13 11:11:34;;;;;;;0.60;0.60;;;27.50;48.10;;;;;;5052334;28;20041;-58
2022/09/13 11:14:18;;;;;;;2.00;0.30;;;27.50;47.80;;;;;;5048390;28;20498;-59
2022/09/13 11:16:58;;;;;;;4.95;0.30;;;27.50;47.60;;;;;;5053758;28;20068;-53
2022/09/13 11:19:54;;;;;;;2.78;0.55;;;27.60;47.90;;;;;;5049480;28;20567;-50
2022/09/13 11:22:34;;;;;;;5.75;1.75;;;27.60;47.60;;;;;;5052568;28;20057;-62
2022/09/13 11:25:17;;;;;;;0.93;0.10;;;27.70;48.80;;;;;;5048791;28;20062;-61
2022/09/13 11:27:54;;;;;;;2.30;0.95;;;27.80;49.50;;;;;;5042983;28;20091;-60
2022/09/13 11:30:23;;;;;;;2.28;1.23;;;27.90;50.00;;;;;;5048781;28;20045;-60
2022/09/13 11:33:17;;;;;;;5.82;0.55;;;27.90;49.30;;;;;;5049212;28;20036;-49
2022/09/13 11:35:54;;;;;;;1.05;0.10;;;28.10;49.00;;;;;;5047337;28;20045;-49
2022/09/13 11:38:35;;;;;;;1.95;0.73;;;28.20;48.60;;;;;;5044310;28;20037;-59
2022/09/13 11:41:13;;;;;;;0.95;0.10;;;28.30;48.20;;;;;;5047170;28;20056;-57
2022/09/13 11:43:57;;;;;;;3.55;0.10;;;28.40;47.80;;;;;;5048108;28;20033;-68
2022/09/13 11:46:31;;;;;;;2.35;0.10;;;28.50;47.40;;;;;;5047129;28;20411;-55
2022/09/13 11:49:16;;;;;;;3.83;0.10;;;28.60;47.20;;;;;;5048731;28;20155;-55
2022/09/13 11:51:52;;;;;;;1.00;0.20;;;28.70;47.30;;;;;;5044388;28;20060;-59
2022/09/13 11:54:33;;;;;;;0.20;0.10;;;28.80;46.40;;;;;;5047564;28;20129;-54
2022/09/13 11:57:04;;;;;;;3.13;0.10;;;28.90;46.10;;;;;;5020751;28;20045;-55
2022/09/13 11:59:38;;;;;;;1.23;0.10;;;29.10;45.90;;;;;;5049569;28;20064;-56
2022/09/13 12:02:18;;;;;;;2.88;0.10;;;29.10;45.60;;;;;;5048279;28;20040;-51
2022/09/13 12:04:52;;;;;;;1.45;0.10;;;29.20;45.40;;;;;;5048264;28;20045;-51
2022/09/13 12:07:29;;;;;;;1.15;0.20;;;29.30;45.20;;;;;;5048017;28;20068;-54
2022/09/13 12:10:02;;;;;;;0.30;0.17;;;29.40;45.10;;;;;;5039366;28;20037;-55
2022/09/13 12:12:33;;;;;;;1.50;0.20;;;29.50;45.00;;;;;;5052225;28;20662;-57
2022/09/13 12:15:06;;;;;;;4.28;0.10;;;29.50;44.90;;;;;;5050861;28;20164;-61
2022/09/13 12:17:39;;;;;;;4.68;0.20;;;29.50;44.70;;;;;;5047793;28;20402;-60
2022/09/13 12:20:18;;;;;;;2.88;0.32;;;29.60;44.60;;;;;;5047843;28;20627;-52
2022/09/13 12:22:47;;;;;;;0.75;0.35;;;29.70;45.00;;;;;;5050878;28;20194;-54
2022/09/13 12:25:21;;;;;;;0.75;0.20;;;29.70;45.10;;;;;;5047467;28;20041;-63
2022/09/13 12:27:56;;;;;;;0.10;0.10;;;29.80;45.10;;;;;;5054103;28;20558;-55
2022/09/13 12:30:28;;;;;;;1.92;0.17;;;29.80;45.10;;;;;;5049329;28;20111;-52
2022/09/13 12:32:55;;;;;;;3.13;0.10;;;29.90;45.20;;;;;;5046473;28;20037;-53
2022/09/13 12:35:29;;;;;;;0.63;0.10;;;29.90;45.20;;;;;;5047701;28;20047;-53
2022/09/13 12:38:17;;;;;;;1.92;0.63;;;29.90;45.00;;;;;;5049654;28;20425;-51
2022/09/13 12:41:12;;;;;;;2.20;0.10;;;30.00;45.00;;;;;;5047437;28;20052;-51
2022/09/13 12:44:20;;;;;;;2.30;0.10;;;30.10;45.00;;;;;;5049977;28;20056;-48
2022/09/13 12:47:23;;;;;;;4.63;0.25;;;30.10;45.00;;;;;;4972607;28;20113;-48
2022/09/13 12:50:15;;;;;;;10.43;0.75;;;30.10;45.00;;;;;;4963310;28;20125;-53
2022/09/13 12:52:51;;;;;;;1.00;0.13;;;30.10;45.10;;;;;;4971293;28;20046;-51
2022/09/13 12:55:38;;;;;;;0.30;0.08;;;30.10;45.10;;;;;;4970959;28;20559;-51
2022/09/13 12:58:29;;;;;;;2.38;0.10;;;30.20;45.10;;;;;;4972294;28;20054;-45
2022/09/13 13:01:09;;;;;;;0.10;0.10;;;30.20;44.90;;;;;;4968452;28;20475;-54
2022/09/13 13:03:45;;;;;;;1.35;0.10;;;30.20;44.80;;;;;;4966593;28;20054;-46
2022/09/13 13:06:25;;;;;;;0.30;0.20;;;30.20;44.60;;;;;;4960798;28;20079;-54
2022/09/13 13:08:56;;;;;;;0.63;0.10;;;30.30;44.40;;;;;;4965284;28;20047;-58
2022/09/13 13:11:25;;;;;;;2.67;0.10;;;30.20;44.10;;;;;;4965517;28;20193;-58
2022/09/13 13:13:57;;;;;;;9.73;0.20;;;30.30;44.10;;;;;;4968550;28;20074;-56
2022/09/13 13:16:28;;;;;;;2.05;0.10;;;30.30;44.10;;;;;;4971851;28;20042;-56